sensor_id;sensor_type;location;lat;lon;timestamp;pressure;altitude;pressure_sealevel;temperature;humidity
50464;BME280;61746;37.534;-122.308;2022-07-05T00:00:44;101285.47;;;23.23;54.44
50464;BME280;61746;37.534;-122.308;2022-07-05T00:03:11;101280.09;;;23.28;54.85
50464;BME280;61746;37.534;-122.308;2022-07-05T00:05:37;101290.13;;;23.34;54.54
50464;BME280;61746;37.534;-122.308;2022-07-05T00:08:05;101279.63;;;23.43;54.79
50464;BME280;61746;37.534;-122.308;2022-07-05T00:10:35;101277.94;;;23.42;54.74
50464;BME280;61746;37.534;-122.308;2022-07-05T00:13:03;101277.09;;;23.41;55.25
50464;BME280;61746;37.534;-122.308;2022-07-05T00:15:30;101273.44;;;23.47;54.75
50464;BME280;61746;37.534;-122.308;2022-07-05T00:17:56;101266.72;;;23.55;54.60
50464;BME280;61746;37.534;-122.308;2022-07-05T00:20:22;101278.22;;;23.52;54.65
50464;BME280;61746;37.534;-122.308;2022-07-05T00:22:49;101265.19;;;23.47;54.98
50464;BME280;61746;37.534;-122.308;2022-07-05T00:25:15;101254.63;;;23.44;54.92
50464;BME280;61746;37.534;-122.308;2022-07-05T00:27:41;101265.50;;;23.39;55.33
50464;BME280;61746;37.534;-122.308;2022-07-05T00:30:09;101264.69;;;23.39;55.65
50464;BME280;61746;37.534;-122.308;2022-07-05T00:32:36;101268.13;;;23.34;55.47
50464;BME280;61746;37.534;-122.308;2022-07-05T00:35:04;101252.81;;;23.26;55.92
50464;BME280;61746;37.534;-122.308;2022-07-05T00:37:30;101247.78;;;23.12;56.33
50464;BME280;61746;37.534;-122.308;2022-07-05T00:39:57;101243.59;;;23.09;56.81
50464;BME280;61746;37.534;-122.308;2022-07-05T00:42:23;101242.44;;;23.17;56.25
50464;BME280;61746;37.534;-122.308;2022-07-05T00:44:49;101237.84;;;23.11;56.61
50464;BME280;61746;37.534;-122.308;2022-07-05T00:47:16;101240.47;;;23.05;56.66
50464;BME280;61746;37.534;-122.308;2022-07-05T00:49:43;101234.00;;;23.00;56.89
50464;BME280;61746;37.534;-122.308;2022-07-05T00:52:10;101229.41;;;22.82;57.18
50464;BME280;61746;37.534;-122.308;2022-07-05T00:54:38;101234.28;;;22.80;57.54
50464;BME280;61746;37.534;-122.308;2022-07-05T00:57:05;101235.78;;;22.64;57.99
50464;BME280;61746;37.534;-122.308;2022-07-05T00:59:32;101235.97;;;22.51;58.65
50464;BME280;61746;37.534;-122.308;2022-07-05T01:01:58;101230.19;;;22.41;58.78
50464;BME280;61746;37.534;-122.308;2022-07-05T01:04:25;101226.16;;;22.25;59.07
50464;BME280;61746;37.534;-122.308;2022-07-05T01:06:52;101225.50;;;22.11;59.67
50464;BME280;61746;37.534;-122.308;2022-07-05T01:09:20;101215.66;;;21.85;59.85
50464;BME280;61746;37.534;-122.308;2022-07-05T01:11:49;101224.25;;;21.70;60.78
50464;BME280;61746;37.534;-122.308;2022-07-05T01:16:43;101222.22;;;21.41;61.57
50464;BME280;61746;37.534;-122.308;2022-07-05T01:19:11;101212.81;;;21.23;61.76
50464;BME280;61746;37.534;-122.308;2022-07-05T01:21:43;101211.63;;;21.19;62.19
50464;BME280;61746;37.534;-122.308;2022-07-05T01:24:14;101220.69;;;21.20;62.43
50464;BME280;61746;37.534;-122.308;2022-07-05T01:26:46;101220.88;;;21.18;62.37
50464;BME280;61746;37.534;-122.308;2022-07-05T01:29:12;101230.84;;;21.13;62.87
50464;BME280;61746;37.534;-122.308;2022-07-05T01:31:40;101232.41;;;21.02;63.17
50464;BME280;61746;37.534;-122.308;2022-07-05T01:34:07;101235.19;;;20.95;63.13
50464;BME280;61746;37.534;-122.308;2022-07-05T01:36:34;101232.69;;;20.94;63.51
50464;BME280;61746;37.534;-122.308;2022-07-05T01:39:02;101234.13;;;20.96;63.80
50464;BME280;61746;37.534;-122.308;2022-07-05T01:41:29;101233.34;;;20.89;63.44
50464;BME280;61746;37.534;-122.308;2022-07-05T01:43:55;101246.41;;;20.87;63.55
50464;BME280;61746;37.534;-122.308;2022-07-05T01:46:22;101240.16;;;20.80;64.11
50464;BME280;61746;37.534;-122.308;2022-07-05T01:48:53;101252.66;;;20.63;64.33
50464;BME280;61746;37.534;-122.308;2022-07-05T01:51:27;101241.16;;;20.47;64.85
50464;BME280;61746;37.534;-122.308;2022-07-05T01:53:55;101245.22;;;20.32;64.82
50464;BME280;61746;37.534;-122.308;2022-07-05T01:56:21;101250.72;;;20.25;65.57
50464;BME280;61746;37.534;-122.308;2022-07-05T01:58:48;101244.81;;;20.21;65.08
50464;BME280;61746;37.534;-122.308;2022-07-05T02:01:34;101254.56;;;20.11;65.84
50464;BME280;61746;37.534;-122.308;2022-07-05T02:04:02;101266.56;;;20.10;66.23
50464;BME280;61746;37.534;-122.308;2022-07-05T02:06:28;101260.69;;;20.00;66.20
50464;BME280;61746;37.534;-122.308;2022-07-05T02:08:55;101260.28;;;19.96;66.22
50464;BME280;61746;37.534;-122.308;2022-07-05T02:11:21;101264.28;;;19.93;66.56
50464;BME280;61746;37.534;-122.308;2022-07-05T02:13:48;101263.03;;;19.89;66.23
50464;BME280;61746;37.534;-122.308;2022-07-05T02:16:14;101263.44;;;19.86;66.41
50464;BME280;61746;37.534;-122.308;2022-07-05T02:18:40;101275.88;;;19.89;66.77
50464;BME280;61746;37.534;-122.308;2022-07-05T02:21:06;101271.66;;;19.93;66.41
50464;BME280;61746;37.534;-122.308;2022-07-05T02:23:32;101282.19;;;19.76;66.71
50464;BME280;61746;37.534;-122.308;2022-07-05T02:25:58;101278.41;;;19.70;67.32
50464;BME280;61746;37.534;-122.308;2022-07-05T02:28:25;101283.47;;;19.74;67.10
50464;BME280;61746;37.534;-122.308;2022-07-05T02:30:51;101281.56;;;19.61;67.69
50464;BME280;61746;37.534;-122.308;2022-07-05T02:33:17;101293.31;;;19.55;67.91
50464;BME280;61746;37.534;-122.308;2022-07-05T02:35:43;101289.34;;;19.44;68.27
50464;BME280;61746;37.534;-122.308;2022-07-05T02:38:09;101291.84;;;19.45;68.85
50464;BME280;61746;37.534;-122.308;2022-07-05T02:40:35;101293.97;;;19.37;68.84
50464;BME280;61746;37.534;-122.308;2022-07-05T02:43:01;101295.00;;;19.29;69.31
50464;BME280;61746;37.534;-122.308;2022-07-05T02:45:27;101301.09;;;19.25;69.30
50464;BME280;61746;37.534;-122.308;2022-07-05T02:47:54;101293.53;;;19.27;69.37
50464;BME280;61746;37.534;-122.308;2022-07-05T02:50:20;101296.91;;;19.29;69.61
50464;BME280;61746;37.534;-122.308;2022-07-05T02:52:46;101291.84;;;19.26;69.75
50464;BME280;61746;37.534;-122.308;2022-07-05T02:55:12;101290.59;;;19.28;69.67
50464;BME280;61746;37.534;-122.308;2022-07-05T02:57:38;101285.75;;;19.30;69.63
50464;BME280;61746;37.534;-122.308;2022-07-05T03:00:08;101280.28;;;19.30;70.05
50464;BME280;61746;37.534;-122.308;2022-07-05T03:02:34;101284.50;;;19.26;70.15
50464;BME280;61746;37.534;-122.308;2022-07-05T03:05:01;101280.91;;;19.26;69.97
50464;BME280;61746;37.534;-122.308;2022-07-05T03:07:27;101292.06;;;19.24;70.12
50464;BME280;61746;37.534;-122.308;2022-07-05T03:09:53;101287.44;;;19.25;70.62
50464;BME280;61746;37.534;-122.308;2022-07-05T03:12:20;101291.22;;;19.17;70.75
50464;BME280;61746;37.534;-122.308;2022-07-05T03:14:46;101296.47;;;19.12;70.88
50464;BME280;61746;37.534;-122.308;2022-07-05T03:17:12;101286.34;;;19.06;71.58
50464;BME280;61746;37.534;-122.308;2022-07-05T03:19:38;101294.53;;;18.99;71.64
50464;BME280;61746;37.534;-122.308;2022-07-05T03:22:04;101298.53;;;18.97;71.97
50464;BME280;61746;37.534;-122.308;2022-07-05T03:24:30;101296.44;;;18.92;72.00
50464;BME280;61746;37.534;-122.308;2022-07-05T03:26:56;101305.22;;;18.87;72.07
50464;BME280;61746;37.534;-122.308;2022-07-05T03:29:23;101307.31;;;18.85;72.16
50464;BME280;61746;37.534;-122.308;2022-07-05T03:31:52;101305.41;;;18.79;72.63
50464;BME280;61746;37.534;-122.308;2022-07-05T03:34:18;101294.25;;;18.74;72.85
50464;BME280;61746;37.534;-122.308;2022-07-05T03:36:44;101293.84;;;18.71;73.05
50464;BME280;61746;37.534;-122.308;2022-07-05T03:39:10;101298.84;;;18.67;73.31
50464;BME280;61746;37.534;-122.308;2022-07-05T03:41:36;101293.16;;;18.62;73.42
50464;BME280;61746;37.534;-122.308;2022-07-05T03:44:02;101301.75;;;18.59;73.61
50464;BME280;61746;37.534;-122.308;2022-07-05T03:46:28;101293.97;;;18.56;73.60
50464;BME280;61746;37.534;-122.308;2022-07-05T03:48:55;101306.97;;;18.54;73.94
50464;BME280;61746;37.534;-122.308;2022-07-05T03:51:21;101298.38;;;18.50;73.92
50464;BME280;61746;37.534;-122.308;2022-07-05T03:53:47;101310.91;;;18.45;74.54
50464;BME280;61746;37.534;-122.308;2022-07-05T03:56:13;101305.44;;;18.45;74.84
50464;BME280;61746;37.534;-122.308;2022-07-05T03:58:40;101311.56;;;18.40;74.64
50464;BME280;61746;37.534;-122.308;2022-07-05T04:01:06;101307.53;;;18.36;75.47
50464;BME280;61746;37.534;-122.308;2022-07-05T04:03:32;101303.69;;;18.24;75.69
50464;BME280;61746;37.534;-122.308;2022-07-05T04:05:58;101305.34;;;18.25;75.82
50464;BME280;61746;37.534;-122.308;2022-07-05T04:08:24;101307.66;;;18.21;76.16
50464;BME280;61746;37.534;-122.308;2022-07-05T04:10:50;101302.84;;;18.23;75.80
50464;BME280;61746;37.534;-122.308;2022-07-05T04:13:16;101297.16;;;18.18;76.05
50464;BME280;61746;37.534;-122.308;2022-07-05T04:15:42;101287.50;;;18.15;76.36
50464;BME280;61746;37.534;-122.308;2022-07-05T04:18:08;101283.72;;;18.17;76.09
50464;BME280;61746;37.534;-122.308;2022-07-05T04:20:35;101285.63;;;18.16;76.20
50464;BME280;61746;37.534;-122.308;2022-07-05T04:23:01;101280.78;;;18.18;75.93
50464;BME280;61746;37.534;-122.308;2022-07-05T04:25:27;101275.53;;;18.17;76.38
50464;BME280;61746;37.534;-122.308;2022-07-05T04:27:54;101267.16;;;18.18;76.31
50464;BME280;61746;37.534;-122.308;2022-07-05T04:30:22;101273.88;;;18.15;76.61
50464;BME280;61746;37.534;-122.308;2022-07-05T04:32:49;101268.41;;;18.15;76.84
50464;BME280;61746;37.534;-122.308;2022-07-05T04:35:15;101271.31;;;18.14;76.88
50464;BME280;61746;37.534;-122.308;2022-07-05T04:37:43;101276.78;;;18.14;76.87
50464;BME280;61746;37.534;-122.308;2022-07-05T04:40:11;101277.81;;;18.13;77.00
50464;BME280;61746;37.534;-122.308;2022-07-05T04:42:37;101271.31;;;18.14;77.19
50464;BME280;61746;37.534;-122.308;2022-07-05T04:45:04;101285.63;;;18.16;76.92
50464;BME280;61746;37.534;-122.308;2022-07-05T04:47:31;101287.50;;;18.15;77.26
50464;BME280;61746;37.534;-122.308;2022-07-05T04:49:57;101295.88;;;18.14;77.33
50464;BME280;61746;37.534;-122.308;2022-07-05T04:52:24;101299.44;;;18.14;77.19
50464;BME280;61746;37.534;-122.308;2022-07-05T04:54:51;101299.63;;;18.13;77.70
50464;BME280;61746;37.534;-122.308;2022-07-05T04:57:18;101308.41;;;18.08;77.85
50464;BME280;61746;37.534;-122.308;2022-07-05T04:59:44;101320.63;;;18.12;77.55
50464;BME280;61746;37.534;-122.308;2022-07-05T05:02:10;101319.78;;;18.12;77.77
50464;BME280;61746;37.534;-122.308;2022-07-05T05:04:37;101318.28;;;18.09;77.75
50464;BME280;61746;37.534;-122.308;2022-07-05T05:07:03;101325.63;;;18.09;78.13
50464;BME280;61746;37.534;-122.308;2022-07-05T05:09:29;101313.88;;;18.08;78.25
50464;BME280;61746;37.534;-122.308;2022-07-05T05:11:55;101326.47;;;18.09;78.08
50464;BME280;61746;37.534;-122.308;2022-07-05T05:14:22;101326.66;;;18.08;78.10
50464;BME280;61746;37.534;-122.308;2022-07-05T05:16:48;101319.16;;;18.10;78.13
50464;BME280;61746;37.534;-122.308;2022-07-05T05:19:14;101316.41;;;18.10;78.39
50464;BME280;61746;37.534;-122.308;2022-07-05T05:21:40;101328.34;;;18.09;78.38
50464;BME280;61746;37.534;-122.308;2022-07-05T05:24:06;101323.31;;;18.06;78.56
50464;BME280;61746;37.534;-122.308;2022-07-05T05:26:33;101323.94;;;18.08;78.22
50464;BME280;61746;37.534;-122.308;2022-07-05T05:28:59;101325.81;;;18.07;78.35
50464;BME280;61746;37.534;-122.308;2022-07-05T05:31:25;101324.16;;;18.06;78.23
50464;BME280;61746;37.534;-122.308;2022-07-05T05:33:51;101329.81;;;18.05;78.53
50464;BME280;61746;37.534;-122.308;2022-07-05T05:36:18;101326.03;;;18.06;78.57
50464;BME280;61746;37.534;-122.308;2022-07-05T05:38:44;101325.63;;;18.09;78.62
50464;BME280;61746;37.534;-122.308;2022-07-05T05:41:10;101330.06;;;18.10;78.11
50464;BME280;61746;37.534;-122.308;2022-07-05T05:43:36;101317.88;;;18.12;78.67
50464;BME280;61746;37.534;-122.308;2022-07-05T05:46:03;101316.66;;;18.15;78.26
50464;BME280;61746;37.534;-122.308;2022-07-05T05:48:29;101314.13;;;18.13;78.35
50464;BME280;61746;37.534;-122.308;2022-07-05T05:50:55;101304.88;;;18.14;78.56
50464;BME280;61746;37.534;-122.308;2022-07-05T05:53:22;101305.09;;;18.13;78.52
50464;BME280;61746;37.534;-122.308;2022-07-05T05:55:48;101299.84;;;18.11;78.69
50464;BME280;61746;37.534;-122.308;2022-07-05T05:58:16;101296.66;;;18.08;78.71
50464;BME280;61746;37.534;-122.308;2022-07-05T06:00:44;101310.09;;;18.09;78.69
50464;BME280;61746;37.534;-122.308;2022-07-05T06:03:16;101302.97;;;18.08;78.67
50464;BME280;61746;37.534;-122.308;2022-07-05T06:05:43;101298.16;;;18.10;78.27
50464;BME280;61746;37.534;-122.308;2022-07-05T06:08:09;101298.16;;;18.10;78.82
50464;BME280;61746;37.534;-122.308;2022-07-05T06:10:35;101300.69;;;18.12;78.90
50464;BME280;61746;37.534;-122.308;2022-07-05T06:13:06;101299.19;;;18.09;78.72
50464;BME280;61746;37.534;-122.308;2022-07-05T06:15:32;101305.50;;;18.10;78.82
50464;BME280;61746;37.534;-122.308;2022-07-05T06:17:59;101296.28;;;18.11;78.86
50464;BME280;61746;37.534;-122.308;2022-07-05T06:20:28;101290.00;;;18.10;78.80
50464;BME280;61746;37.534;-122.308;2022-07-05T06:22:55;101293.56;;;18.11;78.57
50464;BME280;61746;37.534;-122.308;2022-07-05T06:25:22;101291.88;;;18.10;78.56
50464;BME280;61746;37.534;-122.308;2022-07-05T06:27:57;101286.44;;;18.10;78.72
50464;BME280;61746;37.534;-122.308;2022-07-05T06:30:26;101288.09;;;18.11;78.61
50464;BME280;61746;37.534;-122.308;2022-07-05T06:32:53;101286.44;;;18.10;78.72
50464;BME280;61746;37.534;-122.308;2022-07-05T06:35:20;101278.25;;;18.10;78.82
50464;BME280;61746;37.534;-122.308;2022-07-05T06:37:52;101287.44;;;18.09;78.99
50464;BME280;61746;37.534;-122.308;2022-07-05T06:40:23;101278.00;;;18.05;79.09
50464;BME280;61746;37.534;-122.308;2022-07-05T06:42:51;101285.53;;;18.03;79.23
50464;BME280;61746;37.534;-122.308;2022-07-05T06:45:17;101281.50;;;17.99;79.25
50464;BME280;61746;37.534;-122.308;2022-07-05T06:47:44;101288.00;;;17.98;79.45
50464;BME280;61746;37.534;-122.308;2022-07-05T06:50:10;101285.28;;;17.98;79.34
50464;BME280;61746;37.534;-122.308;2022-07-05T06:52:37;101286.34;;;17.97;79.63
50464;BME280;61746;37.534;-122.308;2022-07-05T06:55:05;101277.09;;;17.98;79.46
50464;BME280;61746;37.534;-122.308;2022-07-05T06:57:31;101278.78;;;17.99;79.19
50464;BME280;61746;37.534;-122.308;2022-07-05T06:59:58;101279.84;;;17.98;79.47
50464;BME280;61746;37.534;-122.308;2022-07-05T07:02:25;101271.03;;;17.96;79.57
50464;BME280;61746;37.534;-122.308;2022-07-05T07:04:51;101272.91;;;17.95;79.70
50464;BME280;61746;37.534;-122.308;2022-07-05T07:07:17;101272.25;;;17.93;79.76
50464;BME280;61746;37.534;-122.308;2022-07-05T07:10:03;101271.41;;;17.93;79.97
50464;BME280;61746;37.534;-122.308;2022-07-05T07:12:29;101269.53;;;17.93;79.83
50464;BME280;61746;37.534;-122.308;2022-07-05T07:14:56;101276.25;;;17.91;79.99
50464;BME280;61746;37.534;-122.308;2022-07-05T07:17:23;101275.19;;;17.92;79.76
50464;BME280;61746;37.534;-122.308;2022-07-05T07:19:49;101274.75;;;17.88;80.04
50464;BME280;61746;37.534;-122.308;2022-07-05T07:22:16;101270.53;;;17.85;80.15
50464;BME280;61746;37.534;-122.308;2022-07-05T07:24:42;101270.34;;;17.87;80.19
50464;BME280;61746;37.534;-122.308;2022-07-05T07:27:08;101269.72;;;17.85;79.87
50464;BME280;61746;37.534;-122.308;2022-07-05T07:29:35;101268.88;;;17.84;80.37
50464;BME280;61746;37.534;-122.308;2022-07-05T07:32:03;101253.97;;;17.87;80.09
50464;BME280;61746;37.534;-122.308;2022-07-05T07:34:29;101259.03;;;17.90;79.74
50464;BME280;61746;37.534;-122.308;2022-07-05T07:36:56;101261.53;;;17.85;80.22
50464;BME280;61746;37.534;-122.308;2022-07-05T07:39:24;101256.00;;;17.78;80.46
50464;BME280;61746;37.534;-122.308;2022-07-05T07:41:51;101250.16;;;17.75;80.61
50464;BME280;61746;37.534;-122.308;2022-07-05T07:44:17;101255.59;;;17.75;80.43
50464;BME280;61746;37.534;-122.308;2022-07-05T07:46:44;101252.66;;;17.76;80.77
50464;BME280;61746;37.534;-122.308;2022-07-05T07:49:11;101246.16;;;17.77;80.80
50464;BME280;61746;37.534;-122.308;2022-07-05T07:51:38;101251.41;;;17.79;80.58
50464;BME280;61746;37.534;-122.308;2022-07-05T07:54:05;101251.22;;;17.80;80.24
50464;BME280;61746;37.534;-122.308;2022-07-05T07:56:32;101247.66;;;17.80;80.27
50464;BME280;61746;37.534;-122.308;2022-07-05T07:58:58;101248.69;;;17.79;80.29
50464;BME280;61746;37.534;-122.308;2022-07-05T08:01:24;101246.81;;;17.79;80.56
50464;BME280;61746;37.534;-122.308;2022-07-05T08:03:50;101251.41;;;17.79;80.49
50464;BME280;61746;37.534;-122.308;2022-07-05T08:06:16;101245.13;;;17.78;80.55
50464;BME280;61746;37.534;-122.308;2022-07-05T08:08:43;101254.34;;;17.77;80.44
50464;BME280;61746;37.534;-122.308;2022-07-05T08:11:11;101255.19;;;17.78;80.57
50464;BME280;61746;37.534;-122.308;2022-07-05T08:13:38;101248.69;;;17.79;80.51
50464;BME280;61746;37.534;-122.308;2022-07-05T08:16:09;101253.28;;;17.78;80.37
50464;BME280;61746;37.534;-122.308;2022-07-05T08:18:35;101253.94;;;17.80;80.57
50464;BME280;61746;37.534;-122.308;2022-07-05T08:21:19;101248.50;;;17.80;80.93
50464;BME280;61746;37.534;-122.308;2022-07-05T08:24:03;101244.94;;;17.80;80.47
50464;BME280;61746;37.534;-122.308;2022-07-05T08:26:29;101243.88;;;17.81;80.36
50464;BME280;61746;37.534;-122.308;2022-07-05T08:28:57;101240.31;;;17.80;80.70
50464;BME280;61746;37.534;-122.308;2022-07-05T08:31:28;101248.28;;;17.82;80.63
50464;BME280;61746;37.534;-122.308;2022-07-05T08:33:54;101246.41;;;17.82;80.50
50464;BME280;61746;37.534;-122.308;2022-07-05T08:36:23;101242.44;;;17.85;80.30
50464;BME280;61746;37.534;-122.308;2022-07-05T08:38:49;101247.47;;;17.88;80.54
50464;BME280;61746;37.534;-122.308;2022-07-05T08:41:19;101243.72;;;17.89;80.19
50464;BME280;61746;37.534;-122.308;2022-07-05T08:43:47;101245.19;;;17.92;80.27
50464;BME280;61746;37.534;-122.308;2022-07-05T08:46:14;101239.53;;;17.93;80.06
50464;BME280;61746;37.534;-122.308;2022-07-05T08:48:42;101234.31;;;17.92;80.22
50464;BME280;61746;37.534;-122.308;2022-07-05T08:51:19;101238.31;;;17.96;80.01
50464;BME280;61746;37.534;-122.308;2022-07-05T08:53:52;101223.84;;;17.95;80.15
50464;BME280;61746;37.534;-122.308;2022-07-05T08:56:19;101228.03;;;17.98;79.90
50464;BME280;61746;37.534;-122.308;2022-07-05T08:58:46;101231.81;;;17.97;80.17
50464;BME280;61746;37.534;-122.308;2022-07-05T09:01:13;101222.59;;;17.98;80.01
50464;BME280;61746;37.534;-122.308;2022-07-05T09:03:42;101219.84;;;17.98;79.97
50464;BME280;61746;37.534;-122.308;2022-07-05T09:06:11;101229.72;;;17.99;79.74
50464;BME280;61746;37.534;-122.308;2022-07-05T09:08:38;101222.38;;;17.99;79.61
50464;BME280;61746;37.534;-122.308;2022-07-05T09:11:12;101227.66;;;18.01;79.96
50464;BME280;61746;37.534;-122.308;2022-07-05T09:13:41;101229.31;;;18.02;79.97
50464;BME280;61746;37.534;-122.308;2022-07-05T09:16:08;101221.34;;;18.00;79.78
50464;BME280;61746;37.534;-122.308;2022-07-05T09:18:43;101221.97;;;18.02;79.73
50464;BME280;61746;37.534;-122.308;2022-07-05T09:21:20;101221.78;;;18.04;79.61
50464;BME280;61746;37.534;-122.308;2022-07-05T09:23:57;101222.81;;;18.03;79.90
50464;BME280;61746;37.534;-122.308;2022-07-05T09:26:38;101216.31;;;18.04;79.39
50464;BME280;61746;37.534;-122.308;2022-07-05T09:29:18;101216.97;;;18.06;79.81
50464;BME280;61746;37.534;-122.308;2022-07-05T09:31:46;101220.53;;;18.06;79.78
50464;BME280;61746;37.534;-122.308;2022-07-05T09:34:18;101217.81;;;18.06;79.58
50464;BME280;61746;37.534;-122.308;2022-07-05T09:39:35;101218.44;;;18.08;79.94
50464;BME280;61746;37.534;-122.308;2022-07-05T09:42:21;101217.19;;;18.11;79.62
50464;BME280;61746;37.534;-122.308;2022-07-05T09:44:49;101221.59;;;18.12;79.66
50464;BME280;61746;37.534;-122.308;2022-07-05T09:47:18;101222.66;;;18.11;79.84
50464;BME280;61746;37.534;-122.308;2022-07-05T09:49:49;101224.34;;;18.12;79.62
50464;BME280;61746;37.534;-122.308;2022-07-05T09:55:05;101225.16;;;18.12;79.53
50464;BME280;61746;37.534;-122.308;2022-07-05T09:57:32;101238.81;;;18.12;79.69
50464;BME280;61746;37.534;-122.308;2022-07-05T10:02:36;101228.09;;;18.11;79.67
50464;BME280;61746;37.534;-122.308;2022-07-05T10:05:13;101229.16;;;18.10;79.68
50464;BME280;61746;37.534;-122.308;2022-07-05T10:07:47;101232.06;;;18.08;79.84
50464;BME280;61746;37.534;-122.308;2022-07-05T10:10:21;101238.56;;;18.07;79.91
50464;BME280;61746;37.534;-122.308;2022-07-05T10:12:48;101234.78;;;18.02;79.90
50464;BME280;61746;37.534;-122.308;2022-07-05T10:15:17;101236.44;;;18.03;80.02
50464;BME280;61746;37.534;-122.308;2022-07-05T10:17:56;101235.81;;;18.01;79.77
50464;BME280;61746;37.534;-122.308;2022-07-05T10:20:30;101230.13;;;17.96;79.87
50464;BME280;61746;37.534;-122.308;2022-07-05T10:22:59;101231.56;;;17.92;79.87
50464;BME280;61746;37.534;-122.308;2022-07-05T10:25:28;101233.47;;;17.91;79.82
50464;BME280;61746;37.534;-122.308;2022-07-05T10:27:55;101224.00;;;17.87;79.87
50464;BME280;61746;37.534;-122.308;2022-07-05T10:30:22;101218.94;;;17.84;79.61
50464;BME280;61746;37.534;-122.308;2022-07-05T10:32:49;101233.81;;;17.81;79.91
50464;BME280;61746;37.534;-122.308;2022-07-05T10:35:17;101225.00;;;17.79;79.90
50464;BME280;61746;37.534;-122.308;2022-07-05T10:37:44;101225.00;;;17.79;80.04
50464;BME280;61746;37.534;-122.308;2022-07-05T10:40:11;101222.06;;;17.74;79.98
50464;BME280;61746;37.534;-122.308;2022-07-05T10:42:45;101217.78;;;17.72;80.02
50464;BME280;61746;37.534;-122.308;2022-07-05T10:50:48;101216.72;;;17.66;80.55
50464;BME280;61746;37.534;-122.308;2022-07-05T10:53:25;101220.66;;;17.63;80.51
50464;BME280;61746;37.534;-122.308;2022-07-05T10:58:34;101215.59;;;17.54;80.97
50464;BME280;61746;37.534;-122.308;2022-07-05T11:06:44;101202.94;;;17.40;81.26
50464;BME280;61746;37.534;-122.308;2022-07-05T11:11:41;101212.06;;;17.32;81.55
50464;BME280;61746;37.534;-122.308;2022-07-05T11:16:48;101217.84;;;17.22;81.83
50464;BME280;61746;37.534;-122.308;2022-07-05T11:19:18;101221.00;;;17.19;81.82
50464;BME280;61746;37.534;-122.308;2022-07-05T11:22:04;101210.03;;;17.12;82.32
50464;BME280;61746;37.534;-122.308;2022-07-05T11:24:37;101212.50;;;17.07;82.85
50464;BME280;61746;37.534;-122.308;2022-07-05T11:27:09;101208.31;;;17.05;82.84
50464;BME280;61746;37.534;-122.308;2022-07-05T11:29:43;101211.41;;;17.02;83.02
50464;BME280;61746;37.534;-122.308;2022-07-05T11:32:14;101217.25;;;16.99;83.03
50464;BME280;61746;37.534;-122.308;2022-07-05T11:34:42;101224.97;;;16.95;83.29
50464;BME280;61746;37.534;-122.308;2022-07-05T11:42:49;101233.72;;;16.91;83.29
50464;BME280;61746;37.534;-122.308;2022-07-05T11:45:16;101219.66;;;16.87;83.73
50464;BME280;61746;37.534;-122.308;2022-07-05T11:47:42;101219.66;;;16.87;83.86
50464;BME280;61746;37.534;-122.308;2022-07-05T11:50:11;101208.31;;;16.83;83.46
50464;BME280;61746;37.534;-122.308;2022-07-05T11:52:38;101205.41;;;16.85;83.39
50464;BME280;61746;37.534;-122.308;2022-07-05T11:55:06;101202.47;;;16.86;83.51
50464;BME280;61746;37.534;-122.308;2022-07-05T11:57:33;101201.44;;;16.88;83.61
50464;BME280;61746;37.534;-122.308;2022-07-05T11:59:59;101199.59;;;16.88;83.31
50464;BME280;61746;37.534;-122.308;2022-07-05T12:02:25;101197.88;;;16.87;83.30
50464;BME280;61746;37.534;-122.308;2022-07-05T12:04:53;101194.50;;;16.85;83.21
50464;BME280;61746;37.534;-122.308;2022-07-05T12:07:34;101198.28;;;16.84;83.41
50464;BME280;61746;37.534;-122.308;2022-07-05T12:10:02;101194.06;;;16.81;83.28
50464;BME280;61746;37.534;-122.308;2022-07-05T12:12:46;101202.63;;;16.78;83.67
50464;BME280;61746;37.534;-122.308;2022-07-05T12:15:20;101204.31;;;16.79;83.55
50464;BME280;61746;37.534;-122.308;2022-07-05T12:17:49;101203.25;;;16.80;84.04
50464;BME280;61746;37.534;-122.308;2022-07-05T12:20:21;101199.50;;;16.81;83.38
50464;BME280;61746;37.534;-122.308;2022-07-05T12:22:48;101194.06;;;16.81;83.49
50464;BME280;61746;37.534;-122.308;2022-07-05T12:25:17;101203.06;;;16.82;83.30
50464;BME280;61746;37.534;-122.308;2022-07-05T12:27:45;101202.22;;;16.81;83.74
50464;BME280;61746;37.534;-122.308;2022-07-05T12:30:13;101200.34;;;16.82;83.86
50464;BME280;61746;37.534;-122.308;2022-07-05T12:33:02;101195.94;;;16.81;83.62
50464;BME280;61746;37.534;-122.308;2022-07-05T12:38:15;101204.56;;;16.84;83.75
50464;BME280;61746;37.534;-122.308;2022-07-05T12:40:44;101210.63;;;16.86;83.72
50464;BME280;61746;37.534;-122.308;2022-07-05T12:43:15;101206.88;;;16.88;83.58
50464;BME280;61746;37.534;-122.308;2022-07-05T12:45:57;101209.41;;;16.89;83.69
50464;BME280;61746;37.534;-122.308;2022-07-05T12:48:37;101211.72;;;16.92;83.47
50464;BME280;61746;37.534;-122.308;2022-07-05T12:51:05;101215.13;;;16.94;83.57
50464;BME280;61746;37.534;-122.308;2022-07-05T12:53:31;101213.88;;;16.97;83.38
50464;BME280;61746;37.534;-122.308;2022-07-05T12:56:16;101212.66;;;16.99;83.59
50464;BME280;61746;37.534;-122.308;2022-07-05T12:59:08;101215.16;;;17.01;83.35
50464;BME280;61746;37.534;-122.308;2022-07-05T13:01:40;101216.69;;;17.03;83.48
50464;BME280;61746;37.534;-122.308;2022-07-05T13:04:08;101217.31;;;17.05;83.66